createdAt,value
2023-05-02T00:02:09.785Z,16.73
2023-05-02T00:04:39.641Z,16.13
2023-05-02T00:07:07.791Z,17.13
2023-05-02T00:09:35.858Z,11.37
2023-05-02T00:12:04.030Z,11.83
2023-05-02T00:14:32.140Z,9.93
2023-05-02T00:17:00.187Z,8.50
2023-05-02T00:19:28.296Z,10.27
2023-05-02T00:21:58.148Z,9.67
2023-05-02T00:24:26.947Z,9.70
2023-05-02T00:26:54.969Z,9.17
2023-05-02T00:29:22.930Z,12.83
2023-05-02T00:31:50.946Z,7.20
2023-05-02T00:34:18.934Z,8.80
2023-05-02T00:36:47.069Z,7.00
2023-05-02T00:39:16.598Z,9.90
2023-05-02T00:41:44.488Z,8.67
2023-05-02T00:44:12.488Z,7.13
2023-05-02T00:46:40.666Z,7.33
2023-05-02T00:49:08.729Z,9.23
2023-05-02T00:51:36.786Z,8.80
2023-05-02T00:54:06.833Z,4.30
2023-05-02T00:56:36.916Z,10.40
2023-05-02T00:59:06.117Z,11.17
2023-05-02T01:01:41.332Z,6.00
2023-05-02T01:04:23.069Z,9.40
2023-05-02T01:07:06.519Z,8.83
2023-05-02T01:09:43.167Z,12.27
2023-05-02T01:12:28.946Z,12.07
2023-05-02T01:14:58.561Z,12.03
2023-05-02T01:17:32.615Z,10.80
2023-05-02T01:20:04.621Z,9.47
2023-05-02T01:22:33.604Z,8.73
2023-05-02T01:25:10.149Z,10.40
2023-05-02T01:27:48.850Z,6.80
2023-05-02T01:30:20.423Z,5.80
2023-05-02T01:32:49.986Z,8.43
2023-05-02T01:35:19.548Z,8.33
2023-05-02T01:37:50.474Z,12.10
2023-05-02T01:40:22.548Z,11.57
2023-05-02T01:42:53.424Z,8.77
2023-05-02T01:45:23.699Z,11.10
2023-05-02T01:47:52.656Z,11.43
2023-05-02T01:50:23.993Z,16.67
2023-05-02T01:52:54.627Z,12.40
2023-05-02T01:55:23.370Z,14.70
2023-05-02T01:57:53.897Z,9.83
2023-05-02T02:00:25.038Z,11.13
2023-05-02T02:02:55.795Z,11.20
2023-05-02T02:05:25.521Z,10.17
2023-05-02T02:07:53.645Z,7.77
2023-05-02T02:10:22.968Z,6.30
2023-05-02T02:12:55.132Z,10.67
2023-05-02T02:15:30.536Z,11.47
2023-05-02T02:18:02.119Z,8.50
2023-05-02T02:20:32.289Z,9.03
2023-05-02T02:23:03.727Z,12.43
2023-05-02T02:25:33.278Z,9.70
2023-05-02T02:28:01.824Z,8.97
2023-05-02T02:30:31.357Z,12.67
2023-05-02T02:32:59.603Z,7.13
2023-05-02T02:35:32.988Z,7.50
2023-05-02T02:38:11.569Z,9.43
2023-05-02T02:40:46.074Z,8.17
2023-05-02T02:43:21.669Z,8.70
2023-05-02T02:46:16.994Z,10.87
2023-05-02T02:48:51.292Z,6.27
2023-05-02T02:51:29.592Z,7.97
2023-05-02T02:54:19.079Z,7.70
2023-05-02T02:57:03.060Z,8.70
2023-05-02T02:59:35.142Z,7.93
2023-05-02T03:02:09.388Z,7.03
2023-05-02T03:04:41.995Z,10.77
2023-05-02T03:07:10.897Z,4.57
2023-05-02T03:09:42.697Z,6.83
2023-05-02T03:12:11.118Z,3.17
2023-05-02T03:14:39.644Z,6.40
2023-05-02T03:17:09.443Z,6.73
2023-05-02T03:19:37.522Z,5.70
2023-05-02T03:22:05.715Z,9.27
2023-05-02T03:24:33.748Z,6.13
2023-05-02T03:27:01.751Z,4.17
2023-05-02T03:29:29.780Z,9.53
2023-05-02T03:31:57.893Z,7.87
2023-05-02T03:34:27.429Z,6.63
2023-05-02T03:36:55.420Z,8.50
2023-05-02T03:39:23.617Z,9.77
2023-05-02T03:41:51.991Z,11.90
2023-05-02T03:44:20.050Z,8.00
2023-05-02T03:46:48.631Z,6.70
2023-05-02T03:49:16.808Z,8.70
2023-05-02T03:51:46.185Z,7.30
2023-05-02T03:54:14.157Z,8.00
2023-05-02T03:56:42.936Z,3.90
2023-05-02T03:59:11.916Z,5.07
2023-05-02T04:01:40.080Z,5.27
2023-05-02T04:04:08.675Z,6.90
2023-05-02T04:06:39.128Z,4.40
2023-05-02T04:09:10.614Z,9.07
2023-05-02T04:11:38.695Z,9.00
2023-05-02T04:14:06.629Z,5.07
2023-05-02T04:16:34.663Z,5.20
2023-05-02T04:19:02.803Z,8.63
2023-05-02T04:21:31.591Z,8.00
2023-05-02T04:24:00.636Z,10.07
2023-05-02T04:26:29.978Z,6.40
2023-05-02T04:28:57.994Z,11.93
2023-05-02T04:31:26.906Z,10.80
2023-05-02T04:33:55.011Z,7.00
2023-05-02T04:36:23.126Z,7.50
2023-05-02T04:38:51.098Z,7.43
2023-05-02T04:41:19.849Z,10.53
2023-05-02T04:43:49.169Z,10.13
2023-05-02T04:46:18.009Z,8.70
2023-05-02T04:48:46.156Z,8.83
2023-05-02T04:51:16.812Z,11.07
2023-05-02T04:53:45.100Z,9.00
2023-05-02T04:56:13.878Z,12.37
2023-05-02T04:58:41.866Z,14.00
2023-05-02T05:01:11.236Z,13.20
2023-05-02T05:03:39.618Z,8.40
2023-05-02T05:06:08.182Z,14.33
2023-05-02T05:08:36.165Z,14.30
2023-05-02T05:11:05.194Z,10.30
2023-05-02T05:13:33.217Z,16.33
2023-05-02T05:16:02.134Z,16.20
2023-05-02T05:18:31.730Z,14.50
2023-05-02T05:20:59.752Z,15.00
2023-05-02T05:23:28.400Z,11.47
2023-05-02T05:25:59.177Z,14.00
2023-05-02T05:28:28.270Z,17.17
2023-05-02T05:30:57.528Z,20.73
2023-05-02T05:33:25.755Z,13.70
2023-05-02T05:35:55.280Z,13.40
2023-05-02T05:38:23.384Z,14.03
2023-05-02T05:40:51.662Z,14.03
2023-05-02T05:43:19.643Z,15.80
2023-05-02T05:45:47.640Z,13.80
2023-05-02T05:48:15.852Z,12.33
2023-05-02T05:50:43.852Z,18.23
2023-05-02T05:53:16.059Z,16.23
2023-05-02T05:55:44.028Z,15.63
2023-05-02T05:58:12.074Z,9.73
2023-05-02T06:00:41.833Z,14.27
2023-05-02T06:03:10.226Z,13.20
2023-05-02T06:05:38.421Z,7.60
2023-05-02T06:08:06.370Z,14.37
2023-05-02T06:10:36.004Z,7.73
2023-05-02T06:13:03.914Z,9.00
2023-05-02T06:15:34.053Z,13.43
2023-05-02T06:18:02.112Z,12.83
2023-05-02T06:20:30.078Z,8.77
2023-05-02T06:22:58.195Z,8.10
2023-05-02T06:25:26.174Z,7.83
2023-05-02T06:27:55.465Z,7.27
2023-05-02T06:30:23.473Z,8.27
2023-05-02T06:32:51.539Z,10.43
2023-05-02T06:35:19.859Z,7.87
2023-05-02T06:37:50.014Z,10.07
2023-05-02T06:40:18.287Z,6.47
2023-05-02T06:42:46.250Z,11.57
2023-05-02T06:45:15.778Z,9.20
2023-05-02T06:47:43.898Z,8.43
2023-05-02T06:50:12.811Z,3.43
2023-05-02T06:52:41.288Z,10.63
2023-05-02T06:55:10.167Z,8.47
2023-05-02T06:57:38.237Z,7.47
2023-05-02T07:00:07.529Z,12.40
2023-05-02T07:02:37.550Z,7.00
2023-05-02T07:05:06.271Z,10.30
2023-05-02T07:07:34.213Z,13.23
2023-05-02T07:10:02.465Z,8.80
2023-05-02T07:12:30.694Z,10.77
2023-05-02T07:14:58.682Z,7.53
2023-05-02T07:17:27.617Z,10.23
2023-05-02T07:19:57.455Z,9.10
2023-05-02T07:22:25.483Z,9.37
2023-05-02T07:24:59.214Z,9.10
2023-05-02T07:27:27.256Z,11.17
2023-05-02T07:29:55.231Z,10.60
2023-05-02T07:32:24.771Z,9.73
2023-05-02T07:34:54.202Z,9.33
2023-05-02T07:37:24.014Z,10.20
2023-05-02T07:39:52.020Z,6.80
2023-05-02T07:42:20.027Z,5.90
2023-05-02T07:44:48.293Z,8.27
2023-05-02T07:47:16.302Z,8.40
2023-05-02T07:49:44.288Z,8.53
2023-05-02T07:52:12.322Z,11.67
2023-05-02T07:54:42.278Z,7.90
2023-05-02T07:57:10.488Z,8.37
2023-05-02T07:59:38.457Z,9.00
2023-05-02T08:02:06.589Z,6.70
2023-05-02T08:04:35.132Z,11.00
2023-05-02T08:07:03.192Z,8.60
2023-05-02T08:09:31.253Z,6.20
2023-05-02T08:12:03.660Z,4.63
2023-05-02T08:14:31.776Z,6.87
2023-05-02T08:17:00.435Z,5.53
2023-05-02T08:19:28.673Z,5.67
2023-05-02T08:21:56.778Z,3.23
2023-05-02T08:24:24.725Z,3.33
2023-05-02T08:26:52.709Z,5.67
2023-05-02T08:29:22.056Z,3.33
2023-05-02T08:31:50.258Z,4.17
2023-05-02T08:34:18.639Z,5.87
2023-05-02T08:36:46.574Z,7.47
2023-05-02T08:39:14.864Z,4.27
2023-05-02T08:41:42.934Z,6.50
2023-05-02T08:44:11.088Z,4.67
2023-05-02T08:46:43.767Z,4.47
2023-05-02T08:49:12.335Z,4.37
2023-05-02T08:51:42.337Z,3.80
2023-05-02T08:54:11.657Z,7.87
2023-05-02T08:56:40.014Z,9.80
2023-05-02T08:59:08.549Z,8.23
2023-05-02T09:01:38.541Z,8.97
2023-05-02T09:04:08.343Z,4.67
2023-05-02T09:06:38.246Z,6.53
2023-05-02T09:09:06.769Z,10.13
2023-05-02T09:11:34.748Z,4.70
2023-05-02T09:14:04.619Z,7.93
2023-05-02T09:16:40.711Z,3.93
2023-05-02T09:19:11.217Z,7.37
2023-05-02T09:21:41.428Z,3.80
2023-05-02T09:24:18.060Z,5.03
2023-05-02T09:26:58.968Z,4.20
2023-05-02T09:29:30.790Z,6.97
2023-05-02T09:31:59.028Z,4.50
2023-05-02T09:34:28.478Z,9.13
2023-05-02T09:36:57.848Z,7.63
2023-05-02T09:39:29.048Z,4.90
2023-05-02T09:41:57.710Z,6.90
2023-05-02T09:44:26.952Z,9.07
2023-05-02T09:46:56.247Z,4.87
2023-05-02T09:49:41.728Z,6.90
2023-05-02T09:52:13.769Z,7.70
2023-05-02T09:54:41.802Z,7.60
2023-05-02T09:57:11.185Z,6.60
2023-05-02T09:59:43.489Z,11.40
2023-05-02T10:02:13.424Z,8.80
2023-05-02T10:04:43.540Z,5.93
2023-05-02T10:07:13.769Z,5.37
2023-05-02T10:09:45.483Z,6.17
2023-05-02T10:12:17.210Z,6.00
2023-05-02T10:14:51.639Z,6.40
2023-05-02T10:17:23.629Z,18.73
2023-05-02T10:19:58.029Z,8.63
2023-05-02T10:22:26.996Z,4.67
2023-05-02T10:24:55.922Z,7.30
2023-05-02T10:27:24.183Z,6.27
2023-05-02T10:29:53.190Z,4.17
2023-05-02T10:32:23.946Z,8.97
2023-05-02T10:34:55.552Z,10.77
2023-05-02T10:37:25.482Z,5.23
2023-05-02T10:39:53.717Z,4.63
2023-05-02T10:42:25.537Z,10.77
2023-05-02T10:44:53.652Z,5.67
2023-05-02T10:47:22.182Z,8.17
2023-05-02T10:49:58.680Z,10.00
2023-05-02T10:52:27.555Z,10.27
2023-05-02T10:55:15.678Z,5.67
2023-05-02T10:58:20.811Z,3.47
2023-05-02T11:00:49.405Z,5.70
2023-05-02T11:03:56.788Z,4.23
2023-05-02T11:06:27.772Z,6.37
2023-05-02T11:09:32.336Z,7.70
2023-05-02T11:12:02.053Z,8.07
2023-05-02T11:14:49.826Z,6.43
2023-05-02T11:17:19.121Z,4.13
2023-05-02T11:20:29.990Z,12.90
2023-05-02T11:23:22.305Z,6.80
2023-05-02T11:25:51.317Z,7.87
2023-05-02T11:28:41.882Z,4.83
2023-05-02T11:31:10.885Z,10.17
2023-05-02T11:33:38.886Z,5.37
2023-05-02T11:36:07.235Z,8.80
2023-05-02T11:38:40.498Z,7.27
2023-05-02T11:41:08.500Z,3.93
2023-05-02T11:43:36.445Z,7.27
2023-05-02T11:46:05.960Z,4.97
2023-05-02T11:48:34.105Z,6.20
2023-05-02T11:51:07.192Z,4.50
2023-05-02T11:53:41.217Z,6.27
2023-05-02T11:56:10.750Z,4.30
2023-05-02T11:58:38.715Z,4.70
2023-05-02T12:01:14.160Z,5.73
2023-05-02T12:03:42.437Z,4.33
2023-05-02T12:06:12.623Z,5.93
2023-05-02T12:08:42.257Z,6.30
2023-05-02T12:11:15.014Z,5.63
2023-05-02T12:13:46.859Z,4.20
2023-05-02T12:16:15.121Z,4.27
2023-05-02T12:18:43.740Z,6.60
2023-05-02T12:21:11.936Z,5.30
2023-05-02T12:23:42.311Z,9.37
2023-05-02T12:26:25.235Z,8.40
2023-05-02T12:28:55.076Z,4.07
2023-05-02T12:31:23.652Z,8.73
2023-05-02T12:33:52.717Z,4.53
2023-05-02T12:36:21.092Z,8.07
2023-05-02T12:38:54.637Z,5.00
2023-05-02T12:41:33.706Z,8.00
2023-05-02T12:44:01.920Z,5.97
2023-05-02T12:46:30.010Z,2.87
2023-05-02T12:49:06.819Z,8.37
2023-05-02T12:51:35.003Z,5.13
2023-05-02T12:54:03.154Z,3.87
2023-05-02T12:56:39.979Z,5.87
2023-05-02T12:59:08.254Z,6.33
2023-05-02T13:01:36.820Z,3.27
2023-05-02T13:04:05.774Z,5.63
2023-05-02T13:06:37.984Z,6.33
2023-05-02T13:09:06.280Z,3.90
2023-05-02T13:11:35.570Z,3.00
2023-05-02T13:14:05.646Z,7.00
2023-05-02T13:16:36.622Z,5.57
2023-05-02T13:19:05.173Z,4.63
2023-05-02T13:21:33.160Z,5.67
2023-05-02T13:24:01.905Z,2.80
2023-05-02T13:26:29.844Z,4.53
2023-05-02T13:28:59.143Z,5.63
2023-05-02T13:31:27.542Z,5.63
2023-05-02T13:33:55.767Z,3.17
2023-05-02T13:36:24.534Z,3.57
2023-05-02T13:38:52.621Z,8.80
2023-05-02T13:41:21.610Z,5.90
2023-05-02T13:43:49.704Z,6.03
2023-05-02T13:46:19.146Z,6.37
2023-05-02T13:48:47.150Z,5.93
2023-05-02T13:51:15.145Z,4.90
2023-05-02T13:53:43.119Z,6.60
2023-05-02T13:56:11.086Z,5.85
2023-05-02T13:58:39.347Z,7.97
2023-05-02T14:01:07.437Z,4.37
2023-05-02T14:03:36.954Z,5.13
2023-05-02T14:06:05.184Z,7.03
2023-05-02T14:08:33.086Z,9.13
2023-05-02T14:11:01.121Z,5.63
2023-05-02T14:13:29.122Z,7.93
2023-05-02T14:15:58.722Z,7.75
2023-05-02T14:18:26.897Z,5.20
2023-05-02T14:20:57.880Z,4.93
2023-05-02T14:23:26.070Z,5.68
2023-05-02T14:25:54.463Z,5.47
2023-05-02T14:28:22.509Z,8.43
2023-05-02T14:30:50.743Z,5.22
2023-05-02T14:33:18.982Z,4.22
2023-05-02T14:35:47.039Z,8.50
2023-05-02T14:38:16.412Z,7.40
2023-05-02T14:40:44.369Z,5.88
2023-05-02T14:43:15.178Z,6.63
2023-05-02T14:45:43.577Z,5.88
2023-05-02T14:48:13.999Z,7.57
2023-05-02T14:50:42.171Z,6.32
2023-05-02T14:53:10.611Z,7.70
2023-05-02T14:55:40.747Z,6.25
2023-05-02T14:58:10.436Z,7.32
2023-05-02T15:00:39.052Z,5.60
2023-05-02T15:03:08.334Z,5.40
2023-05-02T15:05:37.748Z,4.95
2023-05-02T15:08:06.247Z,6.97
2023-05-02T15:10:39.931Z,3.78
2023-05-02T15:13:09.043Z,5.97
2023-05-02T15:15:37.469Z,7.60
2023-05-02T15:18:07.065Z,3.65
2023-05-02T15:20:35.117Z,7.95
2023-05-02T15:23:03.969Z,4.85
2023-05-02T15:25:32.331Z,6.78
2023-05-02T15:28:02.623Z,6.28
2023-05-02T15:30:30.626Z,4.32
2023-05-02T15:32:58.801Z,4.85
2023-05-02T15:35:26.909Z,7.65
2023-05-02T15:37:55.034Z,4.85
2023-05-02T15:40:23.162Z,8.88
2023-05-02T15:42:51.194Z,8.80
2023-05-02T15:45:20.554Z,8.48
2023-05-02T15:47:48.736Z,8.77
2023-05-02T15:50:17.389Z,5.63
2023-05-02T15:52:45.409Z,4.85
2023-05-02T15:55:13.554Z,4.63
2023-05-02T15:57:41.572Z,8.13
2023-05-02T16:00:16.630Z,7.40
2023-05-02T16:02:46.088Z,4.95
2023-05-02T16:05:14.340Z,3.97
2023-05-02T16:07:42.302Z,7.15
2023-05-02T16:10:11.325Z,4.80
2023-05-02T16:12:39.443Z,8.30
2023-05-02T16:15:08.811Z,4.93
2023-05-02T16:17:36.893Z,8.00
2023-05-02T16:20:07.478Z,5.43
2023-05-02T16:22:35.737Z,5.50
2023-05-02T16:25:03.831Z,9.50
2023-05-02T16:27:31.875Z,7.28
2023-05-02T16:30:00.790Z,6.65
2023-05-02T16:32:29.137Z,5.85
2023-05-02T16:34:59.586Z,5.10
2023-05-02T16:37:29.266Z,4.72
2023-05-02T16:39:57.800Z,3.58
2023-05-02T16:42:25.960Z,4.15
2023-05-02T16:44:54.031Z,4.55
2023-05-02T16:47:22.037Z,4.72
2023-05-02T16:49:54.575Z,5.53
2023-05-02T16:52:22.686Z,4.25
2023-05-02T16:54:52.416Z,3.63
2023-05-02T16:57:21.622Z,4.88
2023-05-02T16:59:50.708Z,6.00
2023-05-02T17:02:20.904Z,4.45
2023-05-02T17:04:49.970Z,6.53
2023-05-02T17:07:18.145Z,5.53
2023-05-02T17:09:46.214Z,5.65
2023-05-02T17:12:18.675Z,3.92
2023-05-02T17:14:46.696Z,7.40
2023-05-02T17:17:14.681Z,2.75
2023-05-02T17:19:43.234Z,2.30
2023-05-02T17:22:11.609Z,5.43
2023-05-02T17:24:39.625Z,3.33
2023-05-02T17:27:07.948Z,4.63
2023-05-02T17:29:37.424Z,4.22
2023-05-02T17:32:06.159Z,3.17
2023-05-02T17:34:35.793Z,5.45
2023-05-02T17:37:03.870Z,1.70
2023-05-02T17:39:32.274Z,3.95
2023-05-02T17:42:00.395Z,3.58
2023-05-02T17:44:31.063Z,3.92
2023-05-02T17:47:00.478Z,7.60
2023-05-02T17:49:28.662Z,3.00
2023-05-02T17:51:56.823Z,6.57
2023-05-02T17:54:25.051Z,2.10
2023-05-02T17:56:53.404Z,4.60
2023-05-02T17:59:22.255Z,3.45
2023-05-02T18:01:51.109Z,5.65
2023-05-02T18:04:20.945Z,6.07
2023-05-02T18:06:49.457Z,3.45
2023-05-02T18:09:17.681Z,4.17
2023-05-02T18:11:45.796Z,4.20
2023-05-02T18:14:14.079Z,5.30
2023-05-02T18:16:46.961Z,5.07
2023-05-02T18:19:15.376Z,5.17
2023-05-02T18:21:45.098Z,5.33
2023-05-02T18:24:13.188Z,3.93
2023-05-02T18:26:41.204Z,8.27
2023-05-02T18:29:09.269Z,5.13
2023-05-02T18:31:40.513Z,5.03
2023-05-02T18:34:08.709Z,4.03
2023-05-02T18:36:36.742Z,4.30
2023-05-02T18:39:06.331Z,5.73
2023-05-02T18:41:34.416Z,4.60
2023-05-02T18:44:05.434Z,3.43
2023-05-02T18:46:33.489Z,3.27
2023-05-02T18:49:01.666Z,3.77
2023-05-02T18:51:30.387Z,3.73
2023-05-02T18:53:58.430Z,3.87
2023-05-02T18:56:28.199Z,5.83
2023-05-02T18:58:56.744Z,4.20
2023-05-02T19:01:25.561Z,5.73
2023-05-02T19:03:54.525Z,5.10
2023-05-02T19:06:23.104Z,5.00
2023-05-02T19:08:51.157Z,3.70
2023-05-02T19:11:19.567Z,2.97
2023-05-02T19:13:48.969Z,6.75
2023-05-02T19:16:17.175Z,3.10
2023-05-02T19:18:45.296Z,4.40
2023-05-02T19:21:14.320Z,3.80
2023-05-02T19:23:43.064Z,4.00
2023-05-02T19:26:12.828Z,2.47
2023-05-02T19:28:41.212Z,3.53
2023-05-02T19:31:11.661Z,3.20
2023-05-02T19:33:40.268Z,3.83
2023-05-02T19:36:09.290Z,2.60
2023-05-02T19:38:37.566Z,3.10
2023-05-02T19:41:05.634Z,4.53
2023-05-02T19:43:34.624Z,5.30
2023-05-02T19:46:02.855Z,4.03
2023-05-02T19:48:32.325Z,2.87
2023-05-02T19:51:03.745Z,2.03
2023-05-02T19:53:32.324Z,4.57
2023-05-02T19:56:01.134Z,5.87
2023-05-02T19:58:29.939Z,4.30
2023-05-02T20:00:58.387Z,6.37
2023-05-02T20:03:26.625Z,4.53
2023-05-02T20:05:57.525Z,1.97
2023-05-02T20:08:28.988Z,2.77
2023-05-02T20:10:57.002Z,4.33
2023-05-02T20:13:25.171Z,3.80
2023-05-02T20:15:54.270Z,2.37
2023-05-02T20:18:22.458Z,3.17
2023-05-02T20:20:50.606Z,4.80
2023-05-02T20:23:19.884Z,2.50
2023-05-02T20:25:48.192Z,3.27
2023-05-02T20:28:16.351Z,6.33
2023-05-02T20:30:44.447Z,3.27
2023-05-02T20:33:16.133Z,4.53
2023-05-02T20:35:45.408Z,5.27
2023-05-02T20:38:13.483Z,3.93
2023-05-02T20:40:43.536Z,3.33
2023-05-02T20:43:12.483Z,4.63
2023-05-02T20:45:40.865Z,1.33
2023-05-02T20:48:09.036Z,3.10
2023-05-02T20:50:37.038Z,6.27
2023-05-02T20:53:05.504Z,3.57
2023-05-02T20:55:35.672Z,5.37
2023-05-02T20:58:05.055Z,9.17
2023-05-02T21:00:33.113Z,6.40
2023-05-02T21:03:01.260Z,5.43
2023-05-02T21:05:29.532Z,5.27
2023-05-02T21:07:57.547Z,5.20
2023-05-02T21:10:27.654Z,3.80
2023-05-02T21:12:55.998Z,5.87
2023-05-02T21:15:25.598Z,2.67
2023-05-02T21:18:02.053Z,4.37
2023-05-02T21:20:30.239Z,5.83
2023-05-02T21:22:58.275Z,4.07
2023-05-02T21:25:26.395Z,4.23
2023-05-02T21:27:54.665Z,5.07
2023-05-02T21:30:24.315Z,6.90
2023-05-02T21:32:53.738Z,4.47
2023-05-02T21:35:21.899Z,7.23
2023-05-02T21:37:50.028Z,9.20
2023-05-02T21:40:18.127Z,5.00
2023-05-02T21:42:46.126Z,3.87
2023-05-02T21:45:14.300Z,4.73
2023-05-02T21:47:42.244Z,3.60
2023-05-02T21:50:14.707Z,3.97
2023-05-02T21:52:42.680Z,6.97
2023-05-02T21:55:11.188Z,4.03
2023-05-02T21:57:39.186Z,2.90
2023-05-02T22:00:10.767Z,6.40
2023-05-02T22:02:38.806Z,5.97
2023-05-02T22:05:07.225Z,2.80
2023-05-02T22:07:37.026Z,3.97
2023-05-02T22:10:05.549Z,5.00
2023-05-02T22:12:33.626Z,4.30
2023-05-02T22:15:01.774Z,7.97
2023-05-02T22:17:30.049Z,6.73
2023-05-02T22:19:58.350Z,6.17
2023-05-02T22:22:26.317Z,5.63
2023-05-02T22:24:56.632Z,7.40
2023-05-02T22:27:24.684Z,5.80
2023-05-02T22:29:52.895Z,8.10
2023-05-02T22:32:22.404Z,6.53
2023-05-02T22:34:50.683Z,5.40
2023-05-02T22:37:18.896Z,3.17
2023-05-02T22:39:46.868Z,3.50
2023-05-02T22:42:16.216Z,4.37
2023-05-02T22:44:53.594Z,3.90
2023-05-02T22:47:22.756Z,6.37
2023-05-02T22:49:51.043Z,6.17
2023-05-02T22:52:20.499Z,4.13
2023-05-02T22:54:48.894Z,2.53
2023-05-02T22:57:18.316Z,5.17
2023-05-02T22:59:46.292Z,4.47
2023-05-02T23:02:14.469Z,3.10
2023-05-02T23:04:42.566Z,4.23
2023-05-02T23:07:11.270Z,2.67
2023-05-02T23:09:39.274Z,5.87
2023-05-02T23:12:07.454Z,5.43
2023-05-02T23:14:36.791Z,4.67
2023-05-02T23:17:04.798Z,5.37
2023-05-02T23:19:32.777Z,4.97
2023-05-02T23:22:00.979Z,3.57
2023-05-02T23:24:29.517Z,2.73
2023-05-02T23:26:57.676Z,4.20
2023-05-02T23:29:26.602Z,4.60
2023-05-02T23:31:56.007Z,7.00
2023-05-02T23:34:24.362Z,6.43
2023-05-02T23:36:53.551Z,4.80
2023-05-02T23:39:21.828Z,7.23
2023-05-02T23:41:49.874Z,4.73
2023-05-02T23:44:17.874Z,3.70
2023-05-02T23:46:45.911Z,4.37
2023-05-02T23:49:15.334Z,5.40
2023-05-02T23:51:43.311Z,4.47
2023-05-02T23:54:11.520Z,3.70
2023-05-02T23:56:39.576Z,4.20
2023-05-02T23:59:07.568Z,3.07
